Time;durP1;ratioP1;P1;durP2;ratioP2;P2;SDS_P1;SDS_P2;PMS_P1;PMS_P2;Temp;Humidity;BMP_temperature;BMP_pressure;BME280_temperature;BME280_humidity;BME280_pressure;Samples;Min_cycle;Max_cycle;Signal;HPM_P1;HPM_P2
2021/06/08 00:01:05;;;;;;;6.32;4.25;;;;;;;;;;5093692;28;20056;-67
2021/06/08 00:03:31;;;;;;;5.10;4.30;;;;;;;;;;5093148;28;20075;-67
2021/06/08 00:05:58;;;;;;;5.80;3.78;;;;;;;;;;5093233;28;20101;-67
2021/06/08 00:08:25;;;;;;;5.38;4.70;;;;;;;;;;5093228;28;20052;-68
2021/06/08 00:10:51;;;;;;;5.15;4.22;;;;;;;;;;5104501;28;20040;-67
2021/06/08 00:13:17;;;;;;;7.15;4.35;;;;;;;;;;5113075;28;20055;-67
2021/06/08 00:15:43;;;;;;;5.57;4.25;;;;;;;;;;5113223;28;20043;-67
2021/06/08 00:18:09;;;;;;;5.05;4.32;;;;;;;;;;5112074;28;20055;-67
2021/06/08 00:20:36;;;;;;;4.70;3.92;;;;;;;;;;5113313;28;20059;-67
2021/06/08 00:23:02;;;;;;;5.65;4.13;;;;;;;;;;5113378;28;20052;-67
2021/06/08 00:25:29;;;;;;;6.68;4.32;;;;;;;;;;5112060;28;20078;-67
2021/06/08 00:27:56;;;;;;;6.78;4.13;;;;;;;;;;5103172;28;20059;-67
2021/06/08 00:30:24;;;;;;;5.75;5.05;;;;;;;;;;5092448;28;20707;-67
2021/06/08 00:32:50;;;;;;;6.25;4.32;;;;;;;;;;5092516;28;20048;-67
2021/06/08 00:35:16;;;;;;;6.75;4.88;;;;;;;;;;5092234;28;20048;-67
2021/06/08 00:37:42;;;;;;;5.32;4.57;;;;;;;;;;5093164;28;20056;-67
2021/06/08 00:40:09;;;;;;;6.70;4.82;;;;;;;;;;5113233;28;20055;-67
2021/06/08 00:42:36;;;;;;;7.32;6.53;;;;;;;;;;5112446;28;20043;-67
2021/06/08 00:45:04;;;;;;;8.68;5.30;;;;;;;;;;5108289;28;20055;-67
2021/06/08 00:47:30;;;;;;;6.05;5.40;;;;;;;;;;5100897;28;20040;-67
2021/06/08 00:49:57;;;;;;;5.90;5.30;;;;;;;;;;5092613;28;20055;-67
2021/06/08 00:52:23;;;;;;;5.90;5.28;;;;;;;;;;5092611;28;20060;-67
2021/06/08 00:54:49;;;;;;;6.10;4.85;;;;;;;;;;5092335;28;20052;-67
2021/06/08 00:57:15;;;;;;;6.07;4.80;;;;;;;;;;5092483;28;20052;-67
2021/06/08 00:59:42;;;;;;;7.35;6.53;;;;;;;;;;5092361;28;20476;-67
2021/06/08 01:02:08;;;;;;;5.88;5.05;;;;;;;;;;5092533;28;20101;-67
2021/06/08 01:04:34;;;;;;;6.75;5.28;;;;;;;;;;5092310;28;20072;-68
2021/06/08 01:07:00;;;;;;;5.60;4.95;;;;;;;;;;5092751;28;20372;-67
2021/06/08 01:09:26;;;;;;;9.13;6.05;;;;;;;;;;5107468;28;20079;-67
2021/06/08 01:11:52;;;;;;;6.35;5.05;;;;;;;;;;5113226;28;20400;-67
2021/06/08 01:14:18;;;;;;;9.07;6.57;;;;;;;;;;5116530;28;20051;-67
2021/06/08 01:16:45;;;;;;;7.03;6.13;;;;;;;;;;5116998;28;20052;-67
2021/06/08 01:19:11;;;;;;;7.03;6.22;;;;;;;;;;5116542;28;20043;-67
2021/06/08 01:21:39;;;;;;;8.85;7.03;;;;;;;;;;5116709;28;20054;-68
2021/06/08 01:24:05;;;;;;;7.47;5.97;;;;;;;;;;5116968;28;20048;-68
2021/06/08 01:26:32;;;;;;;9.05;5.90;;;;;;;;;;5117146;28;20456;-67
2021/06/08 01:28:59;;;;;;;8.75;7.25;;;;;;;;;;5115889;28;20051;-67
2021/06/08 01:31:27;;;;;;;8.88;7.22;;;;;;;;;;5116144;28;20085;-68
2021/06/08 01:33:53;;;;;;;10.77;6.50;;;;;;;;;;5115994;28;20039;-67
2021/06/08 01:36:21;;;;;;;7.20;5.93;;;;;;;;;;5116423;28;20043;-67
2021/06/08 01:38:50;;;;;;;6.40;5.22;;;;;;;;;;5116623;28;20058;-67
2021/06/08 01:41:18;;;;;;;8.07;5.50;;;;;;;;;;5116439;27;20052;-67
2021/06/08 01:43:45;;;;;;;10.63;6.05;;;;;;;;;;5115750;28;20059;-67
2021/06/08 01:46:11;;;;;;;7.90;5.28;;;;;;;;;;5111468;28;20051;-67
2021/06/08 01:48:38;;;;;;;6.78;5.18;;;;;;;;;;5104107;28;20392;-67
2021/06/08 01:51:21;;;;;;;6.53;5.75;;;;;;;;;;5095827;28;20131;-67
2021/06/08 01:53:54;;;;;;;6.72;6.03;;;;;;;;;;5095953;28;20063;-67
2021/06/08 01:56:24;;;;;;;7.78;6.38;;;;;;;;;;5103670;28;20059;-67
2021/06/08 01:58:58;;;;;;;8.73;5.60;;;;;;;;;;5116230;28;20054;-67
2021/06/08 02:01:30;;;;;;;6.95;6.10;;;;;;;;;;5112549;28;20157;-67
2021/06/08 02:04:01;;;;;;;8.90;5.95;;;;;;;;;;5097239;28;20052;-67
2021/06/08 02:06:30;;;;;;;8.27;5.93;;;;;;;;;;5095599;28;20056;-67
2021/06/08 02:09:00;;;;;;;7.53;6.10;;;;;;;;;;5095460;28;20134;-67
2021/06/08 02:11:30;;;;;;;5.55;4.95;;;;;;;;;;5095598;28;20097;-67
2021/06/08 02:14:02;;;;;;;5.88;5.28;;;;;;;;;;5095341;28;20109;-67
2021/06/08 02:16:32;;;;;;;6.60;5.50;;;;;;;;;;5095655;28;20054;-67
2021/06/08 02:18:58;;;;;;;7.50;5.78;;;;;;;;;;5109265;28;20056;-67
2021/06/08 02:21:27;;;;;;;6.70;5.35;;;;;;;;;;5116008;28;20043;-67
2021/06/08 02:23:53;;;;;;;6.80;5.97;;;;;;;;;;5115629;28;20048;-67
2021/06/08 02:26:24;;;;;;;8.20;5.57;;;;;;;;;;5116088;28;20053;-68
2021/06/08 02:28:50;;;;;;;9.40;5.88;;;;;;;;;;5115632;28;20070;-67
2021/06/08 02:31:18;;;;;;;6.72;5.75;;;;;;;;;;5115974;28;20085;-67
2021/06/08 02:33:46;;;;;;;6.35;5.75;;;;;;;;;;5115626;28;20474;-67
2021/06/08 02:36:12;;;;;;;5.80;5.13;;;;;;;;;;5115502;28;20039;-67
2021/06/08 02:38:38;;;;;;;7.80;5.57;;;;;;;;;;5115049;28;20134;-67
2021/06/08 02:41:05;;;;;;;8.07;6.07;;;;;;;;;;5114906;28;20051;-67
2021/06/08 02:43:33;;;;;;;6.57;5.25;;;;;;;;;;5115408;28;20050;-67
2021/06/08 02:46:00;;;;;;;8.05;5.75;;;;;;;;;;5113523;27;20048;-67
2021/06/08 02:48:26;;;;;;;9.68;6.38;;;;;;;;;;5114995;28;20075;-67
2021/06/08 02:50:53;;;;;;;8.18;6.38;;;;;;;;;;5097063;28;20055;-67
2021/06/08 02:53:22;;;;;;;7.60;6.40;;;;;;;;;;5094511;28;20052;-67
2021/06/08 02:55:48;;;;;;;8.82;6.80;;;;;;;;;;5095128;28;20578;-67
2021/06/08 02:58:14;;;;;;;9.25;7.40;;;;;;;;;;5107517;28;20411;-67
2021/06/08 03:00:42;;;;;;;10.43;6.75;;;;;;;;;;5115489;28;20461;-67
2021/06/08 03:03:09;;;;;;;10.60;8.40;;;;;;;;;;5114923;28;20057;-66
2021/06/08 03:05:38;;;;;;;13.68;8.57;;;;;;;;;;5115104;28;20054;-66
2021/06/08 03:08:06;;;;;;;13.77;8.02;;;;;;;;;;5114973;28;20465;-67
2021/06/08 03:10:33;;;;;;;11.30;8.40;;;;;;;;;;5115026;28;20050;-67
2021/06/08 03:13:01;;;;;;;13.48;9.55;;;;;;;;;;5114702;28;20529;-67
2021/06/08 03:15:30;;;;;;;11.52;9.07;;;;;;;;;;5114581;28;20059;-67
2021/06/08 03:17:58;;;;;;;15.02;9.52;;;;;;;;;;5114374;28;20059;-67
2021/06/08 03:20:28;;;;;;;15.40;9.98;;;;;;;;;;5114339;28;20082;-67
2021/06/08 03:22:56;;;;;;;27.50;12.30;;;;;;;;;;5114252;28;20073;-67
2021/06/08 03:25:24;;;;;;;25.77;11.63;;;;;;;;;;5114552;28;20047;-67
2021/06/08 03:27:50;;;;;;;16.10;10.23;;;;;;;;;;5114333;28;20043;-67
2021/06/08 03:30:17;;;;;;;13.65;9.38;;;;;;;;;;5114291;28;20051;-67
2021/06/08 03:32:44;;;;;;;48.95;14.73;;;;;;;;;;5114343;28;20105;-67
2021/06/08 03:35:12;;;;;;;24.92;13.25;;;;;;;;;;5113527;28;20062;-67
2021/06/08 03:37:40;;;;;;;59.08;16.17;;;;;;;;;;5114295;27;20048;-67
2021/06/08 03:40:07;;;;;;;101.43;20.48;;;;;;;;;;5113970;28;20040;-67
2021/06/08 03:42:33;;;;;;;52.38;17.40;;;;;;;;;;5108076;28;20051;-67
2021/06/08 03:44:59;;;;;;;83.82;19.55;;;;;;;;;;5093884;28;20138;-67
2021/06/08 03:47:26;;;;;;;22.85;15.05;;;;;;;;;;5111904;28;20074;-67
2021/06/08 03:49:54;;;;;;;20.33;15.13;;;;;;;;;;5105291;28;20044;-67
2021/06/08 03:52:23;;;;;;;32.42;16.70;;;;;;;;;;5114047;28;20054;-67
2021/06/08 03:54:49;;;;;;;56.80;19.13;;;;;;;;;;5113712;28;20043;-67
2021/06/08 03:57:15;;;;;;;28.83;16.75;;;;;;;;;;5113536;28;20071;-67
2021/06/08 03:59:41;;;;;;;74.28;20.50;;;;;;;;;;5113885;28;20044;-67
2021/06/08 04:02:08;;;;;;;22.63;16.77;;;;;;;;;;5113575;28;20092;-67
2021/06/08 04:04:34;;;;;;;41.97;20.60;;;;;;;;;;5113230;28;20052;-67
2021/06/08 04:07:00;;;;;;;126.93;25.40;;;;;;;;;;5113314;28;20051;-67
2021/06/08 04:09:28;;;;;;;87.10;25.52;;;;;;;;;;5113602;28;20531;-67
2021/06/08 04:11:54;;;;;;;25.88;18.42;;;;;;;;;;5113499;28;20048;-67
2021/06/08 04:14:21;;;;;;;34.25;21.13;;;;;;;;;;5113128;28;20044;-67
2021/06/08 04:16:47;;;;;;;104.80;26.42;;;;;;;;;;5113501;28;20651;-67
2021/06/08 04:19:14;;;;;;;28.88;20.00;;;;;;;;;;5113446;28;20054;-67
2021/06/08 04:21:42;;;;;;;31.52;19.63;;;;;;;;;;5113118;28;20098;-67
2021/06/08 04:24:08;;;;;;;33.45;19.58;;;;;;;;;;5112994;28;20468;-67
2021/06/08 04:26:35;;;;;;;31.83;18.65;;;;;;;;;;5112310;27;20047;-67
2021/06/08 04:29:02;;;;;;;25.67;19.80;;;;;;;;;;5112099;28;20048;-67
2021/06/08 04:31:28;;;;;;;25.00;20.15;;;;;;;;;;5113209;28;20079;-67
2021/06/08 04:33:54;;;;;;;21.50;18.13;;;;;;;;;;5112797;28;20044;-67
2021/06/08 04:36:20;;;;;;;20.55;17.90;;;;;;;;;;5113029;28;20400;-67
2021/06/08 04:38:47;;;;;;;24.27;20.27;;;;;;;;;;5113023;28;20046;-67
2021/06/08 04:41:14;;;;;;;28.23;21.33;;;;;;;;;;5113373;28;20594;-67
2021/06/08 04:43:42;;;;;;;27.70;19.90;;;;;;;;;;5113178;28;20047;-66
2021/06/08 04:46:11;;;;;;;22.55;19.95;;;;;;;;;;5112391;28;20087;-67
2021/06/08 04:48:37;;;;;;;41.75;22.73;;;;;;;;;;5111221;28;20067;-67
2021/06/08 04:51:05;;;;;;;51.20;24.30;;;;;;;;;;5104455;28;20510;-67
2021/06/08 04:53:31;;;;;;;25.58;20.88;;;;;;;;;;5113038;28;20050;-66
2021/06/08 04:55:57;;;;;;;23.40;19.70;;;;;;;;;;5112736;28;20408;-66
2021/06/08 04:58:24;;;;;;;60.88;25.88;;;;;;;;;;5112340;28;20047;-66
2021/06/08 05:00:57;;;;;;;22.08;19.52;;;;;;;;;;5112306;28;20545;-66
2021/06/08 05:03:25;;;;;;;23.80;20.55;;;;;;;;;;5111435;28;20051;-66
2021/06/08 05:05:54;;;;;;;29.70;22.92;;;;;;;;;;5112277;28;20059;-66
2021/06/08 05:08:21;;;;;;;25.13;20.88;;;;;;;;;;5112095;28;20051;-66
2021/06/08 05:10:52;;;;;;;39.72;24.58;;;;;;;;;;5112675;28;20040;-66
2021/06/08 05:13:18;;;;;;;31.35;25.63;;;;;;;;;;5112713;28;20058;-66
2021/06/08 05:15:45;;;;;;;30.08;23.75;;;;;;;;;;5112948;28;20058;-66
2021/06/08 05:18:14;;;;;;;28.23;23.55;;;;;;;;;;5112315;28;20126;-66
2021/06/08 05:20:42;;;;;;;29.85;25.38;;;;;;;;;;5112483;28;20051;-66
2021/06/08 05:23:08;;;;;;;26.30;22.63;;;;;;;;;;5112627;28;20048;-66
2021/06/08 05:25:35;;;;;;;31.45;25.27;;;;;;;;;;5112955;28;20043;-67
2021/06/08 05:28:02;;;;;;;27.40;24.33;;;;;;;;;;5112967;28;20396;-66
2021/06/08 05:30:29;;;;;;;30.45;25.35;;;;;;;;;;5112588;28;20048;-66
2021/06/08 05:32:55;;;;;;;29.50;23.52;;;;;;;;;;5112676;28;20043;-66
2021/06/08 05:35:27;;;;;;;32.67;25.55;;;;;;;;;;5109562;28;20080;-66
2021/06/08 05:37:53;;;;;;;27.67;22.55;;;;;;;;;;5110522;28;20043;-66
2021/06/08 05:40:22;;;;;;;28.42;24.33;;;;;;;;;;5112661;28;20071;-66
2021/06/08 05:42:48;;;;;;;30.00;25.50;;;;;;;;;;5112089;28;20052;-66
2021/06/08 05:45:15;;;;;;;27.55;24.65;;;;;;;;;;5112364;28;20043;-66
2021/06/08 05:47:41;;;;;;;29.02;23.60;;;;;;;;;;5112021;28;20417;-66
2021/06/08 05:50:08;;;;;;;30.67;25.83;;;;;;;;;;5106869;28;20063;-66
2021/06/08 05:52:36;;;;;;;28.35;25.25;;;;;;;;;;5100093;28;20055;-66
2021/06/08 05:55:03;;;;;;;28.40;24.52;;;;;;;;;;5092406;28;20044;-66
2021/06/08 05:57:30;;;;;;;29.75;24.58;;;;;;;;;;5092034;28;20508;-66
2021/06/08 05:59:57;;;;;;;28.67;25.13;;;;;;;;;;5095483;28;20083;-66
2021/06/08 06:02:24;;;;;;;30.63;26.58;;;;;;;;;;5095542;28;20056;-66
2021/06/08 06:04:50;;;;;;;29.92;26.13;;;;;;;;;;5095369;28;20047;-66
2021/06/08 06:07:17;;;;;;;28.15;24.35;;;;;;;;;;5102147;28;20047;-66
2021/06/08 06:09:44;;;;;;;30.67;27.27;;;;;;;;;;5115017;28;20379;-66
2021/06/08 06:12:11;;;;;;;32.38;28.92;;;;;;;;;;5114780;28;20480;-66
2021/06/08 06:14:38;;;;;;;31.13;27.60;;;;;;;;;;5115760;28;20051;-65
2021/06/08 06:17:04;;;;;;;31.80;27.63;;;;;;;;;;5115812;28;20058;-65
2021/06/08 06:19:30;;;;;;;31.98;26.95;;;;;;;;;;5115545;28;20051;-66
2021/06/08 06:21:57;;;;;;;31.33;26.85;;;;;;;;;;5115881;28;20073;-68
2021/06/08 06:24:24;;;;;;;31.33;27.95;;;;;;;;;;5115471;27;20048;-66
2021/06/08 06:26:51;;;;;;;33.05;27.13;;;;;;;;;;5115117;28;20077;-66
2021/06/08 06:29:18;;;;;;;28.48;25.55;;;;;;;;;;5115329;28;20044;-66
2021/06/08 06:31:45;;;;;;;32.15;26.52;;;;;;;;;;5115529;28;20054;-66
2021/06/08 06:34:12;;;;;;;27.42;24.45;;;;;;;;;;5115448;28;20057;-66
2021/06/08 06:36:38;;;;;;;29.65;25.05;;;;;;;;;;5111389;28;20059;-66
2021/06/08 06:39:07;;;;;;;29.98;23.75;;;;;;;;;;5111532;28;20044;-66
2021/06/08 06:41:34;;;;;;;26.10;22.63;;;;;;;;;;5094892;28;20173;-66
2021/06/08 06:44:01;;;;;;;26.55;23.08;;;;;;;;;;5094977;28;20059;-66
2021/06/08 06:46:31;;;;;;;28.60;24.98;;;;;;;;;;5110695;28;20055;-66
2021/06/08 06:48:57;;;;;;;27.52;24.05;;;;;;;;;;5114292;28;20048;-66
2021/06/08 06:51:24;;;;;;;26.98;24.17;;;;;;;;;;5108140;28;20040;-66
2021/06/08 06:53:50;;;;;;;26.27;23.67;;;;;;;;;;5102403;28;20055;-66
2021/06/08 06:56:18;;;;;;;28.98;25.88;;;;;;;;;;5093951;28;20044;-66
2021/06/08 06:58:44;;;;;;;27.75;24.98;;;;;;;;;;5111283;27;20043;-67
2021/06/08 07:01:12;;;;;;;26.55;23.98;;;;;;;;;;5114276;28;20065;-67
2021/06/08 07:03:38;;;;;;;28.20;25.30;;;;;;;;;;5114949;28;20510;-67
2021/06/08 07:06:05;;;;;;;26.83;24.02;;;;;;;;;;5114855;27;20057;-67
2021/06/08 07:08:34;;;;;;;26.65;23.95;;;;;;;;;;5114580;28;20062;-66
2021/06/08 07:11:00;;;;;;;26.02;23.33;;;;;;;;;;5114124;28;20044;-67
2021/06/08 07:13:27;;;;;;;27.77;24.83;;;;;;;;;;5114430;28;20054;-67
2021/06/08 07:15:53;;;;;;;27.60;24.70;;;;;;;;;;5114608;28;20560;-67
2021/06/08 07:18:21;;;;;;;27.33;24.45;;;;;;;;;;5114203;28;20052;-68
2021/06/08 07:20:50;;;;;;;28.90;25.75;;;;;;;;;;5114446;28;20055;-68
2021/06/08 07:23:19;;;;;;;28.38;25.63;;;;;;;;;;5114092;28;20051;-67
2021/06/08 07:25:45;;;;;;;28.08;25.10;;;;;;;;;;5114557;28;20048;-68
2021/06/08 07:28:11;;;;;;;27.67;24.88;;;;;;;;;;5114201;28;20134;-68
2021/06/08 07:30:41;;;;;;;27.92;25.10;;;;;;;;;;5114209;28;20050;-68
2021/06/08 07:33:10;;;;;;;28.60;25.80;;;;;;;;;;5113966;28;20040;-66
2021/06/08 07:35:45;;;;;;;29.20;26.38;;;;;;;;;;5114280;28;20441;-66
2021/06/08 07:38:16;;;;;;;30.17;27.20;;;;;;;;;;5113446;28;20479;-66
2021/06/08 07:40:48;;;;;;;30.40;27.50;;;;;;;;;;5105869;27;20446;-67
2021/06/08 07:43:15;;;;;;;30.42;27.40;;;;;;;;;;5103360;28;20087;-66
2021/06/08 07:45:45;;;;;;;30.85;27.88;;;;;;;;;;5112857;28;20529;-67
2021/06/08 07:48:15;;;;;;;31.83;28.45;;;;;;;;;;5112636;28;20048;-67
2021/06/08 07:50:45;;;;;;;30.20;27.20;;;;;;;;;;5112298;28;20035;-67
2021/06/08 07:53:12;;;;;;;31.73;28.52;;;;;;;;;;5105336;28;20040;-67
2021/06/08 07:55:42;;;;;;;33.72;29.17;;;;;;;;;;5113280;28;20287;-67
2021/06/08 07:58:09;;;;;;;33.20;29.95;;;;;;;;;;5113817;27;20104;-67
2021/06/08 08:00:35;;;;;;;34.05;30.85;;;;;;;;;;5113188;28;20129;-67
2021/06/08 08:05:43;;;;;;;34.20;30.00;;;;;;;;;;5112061;28;20044;-67
2021/06/08 08:08:10;;;;;;;32.08;29.02;;;;;;;;;;5113851;27;20468;-67
2021/06/08 08:10:36;;;;;;;30.88;28.17;;;;;;;;;;5112650;28;20047;-67
2021/06/08 08:13:02;;;;;;;30.83;27.77;;;;;;;;;;5112629;28;20048;-67
2021/06/08 08:15:28;;;;;;;32.83;29.73;;;;;;;;;;5112413;28;20488;-67
2021/06/08 08:17:54;;;;;;;31.70;28.73;;;;;;;;;;5113978;28;20051;-67
2021/06/08 08:20:30;;;;;;;30.48;27.42;;;;;;;;;;5113421;28;20050;-67
2021/06/08 08:22:57;;;;;;;;;;;;;;;;;;5113567;28;20048;-67
2021/06/08 08:25:23;;;;;;;29.33;26.55;;;;;;;;;;5113226;28;19920;-68
2021/06/08 08:27:49;;;;;;;29.58;26.75;;;;;;;;;;5113333;28;20059;-68
2021/06/08 08:30:16;;;;;;;31.17;28.15;;;;;;;;;;5113170;28;20093;-67
2021/06/08 08:32:42;;;;;;;28.80;26.02;;;;;;;;;;5113826;28;20054;-67
2021/06/08 08:35:08;;;;;;;30.52;27.52;;;;;;;;;;5113435;28;20047;-67
2021/06/08 08:37:34;;;;;;;29.33;26.63;;;;;;;;;;5112715;28;20052;-67
2021/06/08 08:40:02;;;;;;;31.02;27.98;;;;;;;;;;5113313;28;20043;-67
2021/06/08 08:42:28;;;;;;;29.40;26.63;;;;;;;;;;5113331;28;20511;-67
2021/06/08 08:44:55;;;;;;;32.08;28.90;;;;;;;;;;5113147;28;20052;-67
2021/06/08 08:47:21;;;;;;;30.70;27.55;;;;;;;;;;5113436;28;20044;-67
2021/06/08 08:49:47;;;;;;;30.23;27.45;;;;;;;;;;5113321;28;20472;-67
2021/06/08 08:52:13;;;;;;;30.05;27.30;;;;;;;;;;5111620;28;20046;-67
2021/06/08 08:54:40;;;;;;;30.23;27.35;;;;;;;;;;5112814;28;20040;-68
2021/06/08 08:57:08;;;;;;;30.98;28.17;;;;;;;;;;5113238;28;20048;-67
2021/06/08 08:59:34;;;;;;;29.92;27.23;;;;;;;;;;5113006;28;20396;-67
2021/06/08 09:02:01;;;;;;;33.75;30.55;;;;;;;;;;5112779;28;20051;-67
2021/06/08 09:04:27;;;;;;;29.90;27.20;;;;;;;;;;5112504;28;20146;-68
2021/06/08 09:06:54;;;;;;;29.17;26.58;;;;;;;;;;5112842;28;20108;-67
2021/06/08 09:09:20;;;;;;;30.42;27.73;;;;;;;;;;5113140;28;20441;-67
2021/06/08 09:11:46;;;;;;;29.55;26.85;;;;;;;;;;5113343;28;20476;-67
2021/06/08 09:14:15;;;;;;;30.75;28.15;;;;;;;;;;5112949;28;20090;-67
2021/06/08 09:16:41;;;;;;;27.67;25.35;;;;;;;;;;5112734;28;20044;-67
2021/06/08 09:19:08;;;;;;;27.58;25.15;;;;;;;;;;5112730;28;20692;-67
2021/06/08 09:21:38;;;;;;;26.35;23.95;;;;;;;;;;5112810;28;20040;-67
2021/06/08 09:24:18;;;;;;;27.65;25.23;;;;;;;;;;5112311;28;20035;-67
2021/06/08 09:26:53;;;;;;;24.45;22.40;;;;;;;;;;5101696;28;20101;-67
2021/06/08 09:29:34;;;;;;;24.23;22.13;;;;;;;;;;5092041;28;20060;-68
2021/06/08 09:32:21;;;;;;;25.85;23.55;;;;;;;;;;5091979;28;20051;-67
2021/06/08 09:34:49;;;;;;;25.02;22.75;;;;;;;;;;5107786;28;20460;-67
2021/06/08 09:37:15;;;;;;;27.40;25.00;;;;;;;;;;5116047;28;20084;-67
2021/06/08 09:39:46;;;;;;;25.73;23.38;;;;;;;;;;5116045;28;20043;-67
2021/06/08 09:42:26;;;;;;;26.35;23.85;;;;;;;;;;5116536;28;20419;-67
2021/06/08 09:44:54;;;;;;;25.58;23.27;;;;;;;;;;5126016;27;20043;-67
2021/06/08 09:47:27;;;;;;;24.67;22.63;;;;;;;;;;5116436;28;20044;-67
2021/06/08 09:49:53;;;;;;;25.48;23.25;;;;;;;;;;5116465;28;20494;-67
2021/06/08 09:52:20;;;;;;;25.50;23.33;;;;;;;;;;5115274;28;20058;-67
2021/06/08 09:54:47;;;;;;;24.40;22.10;;;;;;;;;;5115116;28;20628;-67
2021/06/08 09:57:16;;;;;;;25.23;23.00;;;;;;;;;;5113204;28;20050;-67
2021/06/08 09:59:45;;;;;;;34.40;24.15;;;;;;;;;;5113219;28;20476;-67
2021/06/08 10:02:34;;;;;;;26.17;22.35;;;;;;;;;;5116007;28;20088;-68
2021/06/08 10:05:18;;;;;;;27.00;23.23;;;;;;;;;;5115415;28;20052;-67
2021/06/08 10:07:44;;;;;;;23.80;21.40;;;;;;;;;;5114826;28;20059;-67
2021/06/08 10:10:12;;;;;;;25.30;22.70;;;;;;;;;;5115928;28;20491;-68
2021/06/08 10:12:55;;;;;;;22.58;20.42;;;;;;;;;;5115654;28;20434;-67
2021/06/08 10:15:21;;;;;;;24.60;21.15;;;;;;;;;;5113977;28;20047;-67
2021/06/08 10:17:56;;;;;;;22.83;20.50;;;;;;;;;;5115647;28;20059;-67
2021/06/08 10:20:23;;;;;;;24.70;22.40;;;;;;;;;;5115486;28;20040;-68
2021/06/08 10:22:49;;;;;;;25.98;21.00;;;;;;;;;;5115387;28;20502;-67
2021/06/08 10:25:16;;;;;;;33.78;23.27;;;;;;;;;;5115401;28;20050;-67
2021/06/08 10:27:42;;;;;;;24.15;20.63;;;;;;;;;;5115198;27;20498;-68
2021/06/08 10:30:09;;;;;;;26.25;23.52;;;;;;;;;;5115018;28;20096;-67
2021/06/08 10:32:36;;;;;;;22.02;20.02;;;;;;;;;;5115390;28;20137;-68
2021/06/08 10:35:03;;;;;;;22.40;20.20;;;;;;;;;;5114896;28;20044;-69
2021/06/08 10:37:31;;;;;;;23.00;21.00;;;;;;;;;;5114906;28;20051;-67
2021/06/08 10:39:58;;;;;;;22.63;20.73;;;;;;;;;;5115061;28;20043;-67
2021/06/08 10:42:26;;;;;;;21.85;19.95;;;;;;;;;;5115138;28;20081;-68
2021/06/08 10:45:00;;;;;;;22.95;20.88;;;;;;;;;;5113889;28;20040;-68
2021/06/08 10:47:34;;;;;;;21.37;19.60;;;;;;;;;;5115241;28;20044;-66
2021/06/08 10:50:00;;;;;;;20.42;18.73;;;;;;;;;;5113380;28;20405;-68
2021/06/08 10:52:28;;;;;;;21.33;19.48;;;;;;;;;;5114334;28;20043;-68
2021/06/08 10:54:54;;;;;;;22.58;20.58;;;;;;;;;;5112422;28;20431;-67
2021/06/08 10:57:23;;;;;;;20.65;18.85;;;;;;;;;;5110523;28;20096;-69
2021/06/08 10:59:50;;;;;;;19.42;17.73;;;;;;;;;;5114513;28;20108;-68
2021/06/08 11:02:44;;;;;;;19.80;18.17;;;;;;;;;;5114662;28;20043;-67
2021/06/08 11:05:10;;;;;;;19.92;18.15;;;;;;;;;;5110815;28;20048;-68
2021/06/08 11:07:55;;;;;;;19.83;18.13;;;;;;;;;;5114700;28;20710;-68
2021/06/08 11:10:53;;;;;;;20.67;18.98;;;;;;;;;;5110725;28;20051;-67
2021/06/08 11:13:43;;;;;;;21.05;19.23;;;;;;;;;;5109327;28;20438;-68
2021/06/08 11:16:30;;;;;;;19.15;17.52;;;;;;;;;;5101750;28;20138;-68
2021/06/08 11:18:56;;;;;;;18.77;17.08;;;;;;;;;;5112064;28;20396;-68
2021/06/08 11:21:27;;;;;;;19.73;17.90;;;;;;;;;;5114511;28;20465;-69
2021/06/08 11:23:55;;;;;;;18.52;16.83;;;;;;;;;;5111732;28;20046;-68
2021/06/08 11:26:47;;;;;;;19.55;17.85;;;;;;;;;;5114498;28;20120;-68
2021/06/08 11:29:44;;;;;;;22.10;20.00;;;;;;;;;;5111566;28;20093;-68
2021/06/08 11:32:12;;;;;;;19.88;18.27;;;;;;;;;;5113866;28;20036;-68
2021/06/08 11:35:08;;;;;;;21.52;19.50;;;;;;;;;;5115258;27;20046;-67
2021/06/08 11:37:54;;;;;;;18.58;16.98;;;;;;;;;;5102307;27;20043;-67
2021/06/08 11:40:58;;;;;;;20.05;18.45;;;;;;;;;;5112175;28;20047;-68
2021/06/08 11:43:45;;;;;;;20.70;18.90;;;;;;;;;;5112999;28;20047;-68
2021/06/08 11:46:13;;;;;;;19.38;17.73;;;;;;;;;;5113623;28;20078;-68
2021/06/08 11:48:40;;;;;;;19.02;17.50;;;;;;;;;;5113909;28;20594;-68
2021/06/08 11:51:34;;;;;;;19.08;17.50;;;;;;;;;;5113621;28;20582;-68
2021/06/08 11:54:01;;;;;;;15.38;13.93;;;;;;;;;;5104541;28;20055;-68
2021/06/08 11:56:47;;;;;;;14.23;12.95;;;;;;;;;;5110962;28;20039;-68
2021/06/08 11:59:15;;;;;;;14.77;13.30;;;;;;;;;;5109632;28;20044;-67
2021/06/08 12:01:42;;;;;;;14.07;12.88;;;;;;;;;;5113223;28;20047;-68
2021/06/08 12:04:08;;;;;;;15.75;14.18;;;;;;;;;;5112539;28;20050;-66
2021/06/08 12:07:03;;;;;;;16.30;14.07;;;;;;;;;;5114112;28;20043;-66
2021/06/08 12:09:30;;;;;;;15.30;13.85;;;;;;;;;;5100716;28;20047;-68
2021/06/08 12:11:58;;;;;;;14.55;13.10;;;;;;;;;;5103333;28;20042;-68
2021/06/08 12:14:25;;;;;;;14.82;13.45;;;;;;;;;;5113946;28;20492;-68
2021/06/08 12:16:52;;;;;;;13.82;12.55;;;;;;;;;;5113853;28;20529;-68
2021/06/08 12:19:19;;;;;;;13.30;12.10;;;;;;;;;;5114052;28;20047;-68
2021/06/08 12:21:45;;;;;;;14.55;13.05;;;;;;;;;;5113004;28;20043;-68
2021/06/08 12:24:20;;;;;;;12.85;11.68;;;;;;;;;;5112732;28;20060;-68
2021/06/08 12:26:55;;;;;;;12.68;11.50;;;;;;;;;;5113237;28;20035;-68
2021/06/08 12:29:22;;;;;;;10.40;9.50;;;;;;;;;;5109938;28;20051;-69
2021/06/08 12:32:03;;;;;;;9.75;8.95;;;;;;;;;;5113820;28;20050;-68
2021/06/08 12:34:34;;;;;;;8.45;7.65;;;;;;;;;;5111202;28;20104;-68
2021/06/08 12:37:01;;;;;;;12.80;11.70;;;;;;;;;;5107355;28;20377;-68
2021/06/08 12:39:29;;;;;;;13.48;12.25;;;;;;;;;;5113163;28;20054;-68
2021/06/08 12:42:08;;;;;;;14.23;12.93;;;;;;;;;;5112280;28;20071;-68
2021/06/08 12:44:37;;;;;;;14.07;12.80;;;;;;;;;;5103511;28;20407;-68
2021/06/08 12:47:04;;;;;;;15.30;14.00;;;;;;;;;;5113331;28;20065;-69
2021/06/08 12:49:37;;;;;;;15.38;13.98;;;;;;;;;;5112749;28;20177;-68
2021/06/08 12:52:04;;;;;;;16.70;14.93;;;;;;;;;;5112500;28;20388;-68
2021/06/08 12:54:34;;;;;;;16.25;14.68;;;;;;;;;;5112454;28;20043;-68
2021/06/08 12:57:01;;;;;;;15.75;14.10;;;;;;;;;;5107929;28;20101;-68
2021/06/08 12:59:31;;;;;;;15.00;13.70;;;;;;;;;;5103307;28;20047;-68
2021/06/08 13:02:01;;;;;;;14.05;12.65;;;;;;;;;;5112520;28;20494;-68
2021/06/08 13:04:28;;;;;;;15.82;12.18;;;;;;;;;;5111459;28;20131;-67
2021/06/08 13:06:56;;;;;;;13.38;12.00;;;;;;;;;;5112470;28;20105;-68
2021/06/08 13:09:23;;;;;;;17.50;13.35;;;;;;;;;;5111419;28;20039;-68
2021/06/08 13:11:49;;;;;;;14.80;13.30;;;;;;;;;;5112814;28;20268;-68
2021/06/08 13:14:18;;;;;;;12.52;11.32;;;;;;;;;;5112536;28;20434;-67
2021/06/08 13:16:44;;;;;;;11.77;9.57;;;;;;;;;;5112575;28;20055;-71
2021/06/08 13:19:20;;;;;;;10.75;9.85;;;;;;;;;;5110587;28;20055;-69
2021/06/08 13:21:46;;;;;;;11.05;10.10;;;;;;;;;;5112894;28;20479;-68
2021/06/08 13:24:14;;;;;;;10.70;9.00;;;;;;;;;;5112899;28;20062;-69
2021/06/08 13:26:40;;;;;;;10.20;9.25;;;;;;;;;;5111997;28;20074;-69
2021/06/08 13:29:19;;;;;;;9.18;8.38;;;;;;;;;;5110640;28;20537;-69
2021/06/08 13:31:46;;;;;;;9.40;8.50;;;;;;;;;;5112694;28;20044;-69
2021/06/08 13:34:20;;;;;;;10.18;9.20;;;;;;;;;;5111126;28;20047;-69
2021/06/08 13:36:46;;;;;;;9.45;8.05;;;;;;;;;;5112807;28;20044;-69
2021/06/08 13:39:14;;;;;;;8.35;7.63;;;;;;;;;;5112578;28;20506;-69
2021/06/08 13:41:41;;;;;;;7.90;7.20;;;;;;;;;;5111808;28;20088;-69
2021/06/08 13:44:09;;;;;;;8.48;7.65;;;;;;;;;;5112094;28;20109;-69
2021/06/08 13:46:35;;;;;;;6.82;6.18;;;;;;;;;;5113019;28;20052;-68
2021/06/08 13:49:03;;;;;;;6.72;6.13;;;;;;;;;;5112602;28;20180;-69
2021/06/08 13:51:31;;;;;;;7.55;6.75;;;;;;;;;;5111904;28;20047;-69
2021/06/08 13:54:11;;;;;;;10.13;9.15;;;;;;;;;;5107933;28;20051;-69
2021/06/08 13:56:44;;;;;;;8.30;7.50;;;;;;;;;;5107433;28;20510;-69
2021/06/08 14:01:56;;;;;;;7.55;6.82;;;;;;;;;;5109456;28;20055;-69
2021/06/08 14:04:41;;;;;;;7.95;6.70;;;;;;;;;;5109703;28;20047;-67
2021/06/08 14:07:09;;;;;;;8.55;7.38;;;;;;;;;;5101419;28;20044;-69
2021/06/08 14:09:40;;;;;;;7.50;6.70;;;;;;;;;;5098903;28;20051;-69
2021/06/08 14:12:07;;;;;;;8.70;7.15;;;;;;;;;;5101194;28;20052;-69
2021/06/08 14:14:34;;;;;;;7.88;6.95;;;;;;;;;;5112276;28;20052;-69
2021/06/08 14:17:08;;;;;;;7.90;7.15;;;;;;;;;;5112147;28;20137;-69
2021/06/08 14:19:34;;;;;;;7.93;7.13;;;;;;;;;;5113967;28;20044;-69
2021/06/08 14:22:00;;;;;;;9.15;7.88;;;;;;;;;;5115781;28;20079;-69
2021/06/08 14:24:28;;;;;;;8.68;7.88;;;;;;;;;;5115771;27;20048;-69
2021/06/08 14:26:54;;;;;;;8.25;7.30;;;;;;;;;;5116361;28;20047;-69
2021/06/08 14:29:22;;;;;;;8.85;8.05;;;;;;;;;;5115198;28;20584;-69
2021/06/08 14:31:48;;;;;;;11.52;7.57;;;;;;;;;;5115851;28;20165;-69
2021/06/08 14:34:14;;;;;;;12.93;8.38;;;;;;;;;;5114402;28;20048;-69
2021/06/08 14:36:40;;;;;;;10.20;7.65;;;;;;;;;;5115892;28;20051;-70
2021/06/08 14:39:07;;;;;;;10.27;8.20;;;;;;;;;;5115664;28;20047;-69
2021/06/08 14:41:34;;;;;;;9.05;6.90;;;;;;;;;;5116017;27;20413;-69